Time;durP1;ratioP1;P1;durP2;ratioP2;P2;SDS_P1;SDS_P2;PMS_P1;PMS_P2;Temp;Humidity;BMP_temperature;BMP_pressure;BME280_temperature;BME280_humidity;BME280_pressure;Samples;Min_cycle;Max_cycle;Signal;HPM_P1;HPM_P2
2023/10/20 00:00:25;;;;;;;11.98;5.35;;;;;;;;;;5069515;28;20060;-61
2023/10/20 00:02:51;;;;;;;13.05;5.40;;;;;;;;;;5101471;28;20142;-58
2023/10/20 00:05:18;;;;;;;13.68;5.82;;;;;;;;;;5118475;28;20057;-63
2023/10/20 00:07:46;;;;;;;12.00;6.00;;;;;;;;;;5115802;28;20326;-63
2023/10/20 00:10:12;;;;;;;9.43;5.30;;;;;;;;;;5130957;27;20066;-62
2023/10/20 00:12:44;;;;;;;15.65;6.00;;;;;;;;;;5145864;27;20310;-63
2023/10/20 00:15:13;;;;;;;15.10;6.28;;;;;;;;;;5124113;27;20106;-61
2023/10/20 00:17:40;;;;;;;11.48;5.40;;;;;;;;;;5123745;27;20517;-60
2023/10/20 00:20:09;;;;;;;18.83;6.35;;;;;;;;;;5119772;27;20115;-61
2023/10/20 00:22:37;;;;;;;14.15;6.72;;;;;;;;;;5120726;27;20055;-60
2023/10/20 00:25:04;;;;;;;12.48;5.60;;;;;;;;;;5117899;27;20130;-60
2023/10/20 00:27:31;;;;;;;11.20;5.95;;;;;;;;;;5135088;27;20097;-61
2023/10/20 00:29:59;;;;;;;17.73;7.57;;;;;;;;;;5119208;27;20134;-62
2023/10/20 00:32:25;;;;;;;13.48;6.13;;;;;;;;;;5113717;27;20043;-62
2023/10/20 00:34:52;;;;;;;13.25;6.57;;;;;;;;;;5096393;27;20178;-61
2023/10/20 00:37:20;;;;;;;14.38;6.22;;;;;;;;;;5122449;27;20059;-61
2023/10/20 00:39:47;;;;;;;12.57;6.82;;;;;;;;;;5121371;27;20143;-61
2023/10/20 00:42:13;;;;;;;16.58;6.78;;;;;;;;;;5122517;27;20059;-62
2023/10/20 00:44:40;;;;;;;12.02;6.40;;;;;;;;;;5100247;27;20036;-62
2023/10/20 00:47:09;;;;;;;13.00;6.68;;;;;;;;;;5118548;27;20143;-61
2023/10/20 00:49:37;;;;;;;17.73;7.28;;;;;;;;;;5108867;27;20050;-61
2023/10/20 00:52:04;;;;;;;15.35;5.97;;;;;;;;;;5124666;27;20497;-61
2023/10/20 00:54:31;;;;;;;11.10;6.85;;;;;;;;;;5123938;27;20053;-61
2023/10/20 00:56:58;;;;;;;16.70;8.00;;;;;;;;;;5119905;27;20054;-60
2023/10/20 00:59:24;;;;;;;18.73;7.28;;;;;;;;;;5118171;27;20130;-60
2023/10/20 01:01:51;;;;;;;17.80;8.00;;;;;;;;;;5118634;27;20120;-61
2023/10/20 01:04:19;;;;;;;19.00;9.27;;;;;;;;;;5115882;27;20055;-60
2023/10/20 01:06:48;;;;;;;11.98;6.93;;;;;;;;;;5096605;28;20159;-61
2023/10/20 01:09:23;;;;;;;;;;;;;;;;;;5098226;28;20062;-62
2023/10/20 01:11:49;;;;;;;16.27;7.60;;;;;;;;;;5099817;27;19947;-61
2023/10/20 01:14:16;;;;;;;20.60;7.90;;;;;;;;;;5100908;28;20055;-62
2023/10/20 01:16:42;;;;;;;14.25;8.90;;;;;;;;;;5094425;27;20055;-62
2023/10/20 01:19:09;;;;;;;13.73;7.88;;;;;;;;;;5085398;28;20108;-61
2023/10/20 01:21:38;;;;;;;17.08;8.40;;;;;;;;;;5102989;27;20055;-59
2023/10/20 01:24:07;;;;;;;18.52;7.80;;;;;;;;;;5097778;28;20143;-59
2023/10/20 01:26:34;;;;;;;18.52;8.27;;;;;;;;;;5098153;27;20042;-63
2023/10/20 01:29:05;;;;;;;15.52;8.63;;;;;;;;;;5087563;28;21905;-59
2023/10/20 01:31:32;;;;;;;17.05;7.97;;;;;;;;;;5098529;28;20052;-61
2023/10/20 01:33:58;;;;;;;17.25;7.70;;;;;;;;;;5101138;28;20056;-61
2023/10/20 01:36:25;;;;;;;17.45;7.53;;;;;;;;;;5099828;28;20063;-61
2023/10/20 01:38:52;;;;;;;16.45;8.02;;;;;;;;;;5075687;28;20059;-60
2023/10/20 01:41:20;;;;;;;18.48;9.18;;;;;;;;;;5113041;27;20459;-63
2023/10/20 01:43:46;;;;;;;17.67;7.95;;;;;;;;;;5082209;28;20207;-62
2023/10/20 01:46:13;;;;;;;15.52;8.15;;;;;;;;;;5082729;28;20056;-60
2023/10/20 01:48:42;;;;;;;16.60;8.75;;;;;;;;;;5073589;28;20056;-59
2023/10/20 01:51:08;;;;;;;16.85;8.02;;;;;;;;;;5098615;27;20055;-61
2023/10/20 01:53:35;;;;;;;15.75;8.45;;;;;;;;;;5097809;28;20043;-60
2023/10/20 01:56:02;;;;;;;16.58;8.82;;;;;;;;;;5100010;27;20048;-61
2023/10/20 01:58:30;;;;;;;18.38;8.68;;;;;;;;;;5089003;28;20055;-62
2023/10/20 02:00:57;;;;;;;13.88;8.18;;;;;;;;;;5090395;27;20052;-58
2023/10/20 02:03:24;;;;;;;18.08;8.45;;;;;;;;;;5119114;27;20078;-60
2023/10/20 02:05:50;;;;;;;19.77;8.52;;;;;;;;;;5095258;27;20053;-62
2023/10/20 02:08:17;;;;;;;19.15;9.10;;;;;;;;;;5135516;27;20063;-60
2023/10/20 02:10:45;;;;;;;16.98;8.43;;;;;;;;;;5123975;27;20214;-63
2023/10/20 02:13:11;;;;;;;16.77;8.55;;;;;;;;;;5144157;27;20063;-60
2023/10/20 02:15:39;;;;;;;18.83;8.30;;;;;;;;;;5108890;27;20068;-60
2023/10/20 02:18:07;;;;;;;23.33;9.48;;;;;;;;;;5121455;27;20216;-59
2023/10/20 02:20:37;;;;;;;16.42;8.05;;;;;;;;;;5117451;27;20107;-60
2023/10/20 02:23:04;;;;;;;18.65;9.57;;;;;;;;;;5126318;27;20046;-60
2023/10/20 02:25:31;;;;;;;17.63;8.07;;;;;;;;;;5115615;27;20059;-61
2023/10/20 02:27:58;;;;;;;18.50;8.40;;;;;;;;;;5124285;27;20058;-60
2023/10/20 02:30:25;;;;;;;19.15;7.82;;;;;;;;;;5114061;27;20055;-61
2023/10/20 02:32:54;;;;;;;19.10;8.95;;;;;;;;;;5121422;27;20062;-59
2023/10/20 02:35:21;;;;;;;18.40;7.55;;;;;;;;;;5114813;27;20224;-63
2023/10/20 02:37:48;;;;;;;19.65;9.00;;;;;;;;;;5139080;27;20046;-62
2023/10/20 02:40:15;;;;;;;19.38;8.82;;;;;;;;;;5115704;27;20046;-62
2023/10/20 02:42:43;;;;;;;16.88;8.13;;;;;;;;;;5120711;27;20058;-63
2023/10/20 02:45:10;;;;;;;;;;;;;;;;;;5134458;27;20066;-59
2023/10/20 02:47:37;;;;;;;18.77;7.05;;;;;;;;;;5122433;27;20307;-64
2023/10/20 02:50:10;;;;;;;19.75;9.40;;;;;;;;;;5142687;27;20054;-61
2023/10/20 02:52:37;;;;;;;16.15;8.77;;;;;;;;;;5131354;27;20108;-60
2023/10/20 02:55:03;;;;;;;21.50;10.02;;;;;;;;;;5105336;27;20058;-61
2023/10/20 02:57:30;;;;;;;21.75;8.63;;;;;;;;;;5125109;27;20458;-62
2023/10/20 02:59:57;;;;;;;25.67;10.32;;;;;;;;;;5119695;27;20051;-61
2023/10/20 03:02:26;;;;;;;20.33;8.23;;;;;;;;;;5114210;27;20050;-63
2023/10/20 03:04:54;;;;;;;20.45;9.48;;;;;;;;;;5115839;27;20062;-61
2023/10/20 03:07:27;;;;;;;21.10;8.57;;;;;;;;;;5139374;27;20057;-63
2023/10/20 03:09:54;;;;;;;21.02;8.73;;;;;;;;;;5134502;27;20047;-63
2023/10/20 03:12:21;;;;;;;19.50;8.80;;;;;;;;;;5115011;27;20042;-61
2023/10/20 03:14:47;;;;;;;24.40;9.45;;;;;;;;;;5133350;27;20054;-62
2023/10/20 03:17:15;;;;;;;22.02;9.57;;;;;;;;;;5139333;27;20088;-60
2023/10/20 03:19:44;;;;;;;21.05;10.30;;;;;;;;;;5117526;28;20251;-61
2023/10/20 03:22:12;;;;;;;22.67;9.35;;;;;;;;;;5116695;27;20055;-61
2023/10/20 03:24:40;;;;;;;21.30;10.20;;;;;;;;;;5110358;27;20054;-60
2023/10/20 03:27:07;;;;;;;21.80;9.45;;;;;;;;;;5118407;27;20159;-59
2023/10/20 03:29:34;;;;;;;23.90;9.90;;;;;;;;;;5119248;27;20078;-59
2023/10/20 03:32:00;;;;;;;23.15;9.93;;;;;;;;;;5120437;27;20067;-59
2023/10/20 03:34:27;;;;;;;19.75;9.60;;;;;;;;;;5100888;27;20047;-58
2023/10/20 03:36:53;;;;;;;24.70;10.85;;;;;;;;;;5118589;28;20051;-60
2023/10/20 03:39:21;;;;;;;23.17;10.38;;;;;;;;;;5123039;27;20047;-61
2023/10/20 03:41:50;;;;;;;25.23;10.05;;;;;;;;;;5120629;27;20123;-61
2023/10/20 03:44:17;;;;;;;23.15;9.45;;;;;;;;;;5090942;27;20072;-61
2023/10/20 03:46:48;;;;;;;20.17;9.02;;;;;;;;;;5105725;28;20039;-61
2023/10/20 03:49:15;;;;;;;24.90;9.65;;;;;;;;;;5120564;27;20047;-59
2023/10/20 03:51:48;;;;;;;22.60;9.40;;;;;;;;;;5122778;27;20201;-61
2023/10/20 03:54:15;;;;;;;22.25;8.95;;;;;;;;;;5097864;27;20101;-61
2023/10/20 03:56:42;;;;;;;24.40;9.25;;;;;;;;;;5102458;27;21890;-60
2023/10/20 03:59:10;;;;;;;23.95;10.00;;;;;;;;;;5104159;27;20136;-61
2023/10/20 04:01:37;;;;;;;25.13;9.00;;;;;;;;;;5122048;27;20130;-61
2023/10/20 04:04:04;;;;;;;24.17;10.68;;;;;;;;;;5120204;27;20377;-57
2023/10/20 04:06:31;;;;;;;23.60;10.63;;;;;;;;;;5117288;27;20058;-61
2023/10/20 04:09:01;;;;;;;17.85;7.82;;;;;;;;;;5122799;27;20065;-61
2023/10/20 04:11:29;;;;;;;28.50;9.80;;;;;;;;;;5123762;27;20093;-62
2023/10/20 04:13:56;;;;;;;23.70;9.73;;;;;;;;;;5083956;27;20050;-58
2023/10/20 04:16:27;;;;;;;18.23;8.10;;;;;;;;;;5121381;27;20121;-60
2023/10/20 04:18:54;;;;;;;25.70;10.05;;;;;;;;;;5147540;27;20123;-64
2023/10/20 04:21:21;;;;;;;18.85;8.13;;;;;;;;;;5127220;27;20054;-59
2023/10/20 04:23:47;;;;;;;22.00;9.07;;;;;;;;;;5113689;27;20038;-64
2023/10/20 04:26:19;;;;;;;23.70;9.88;;;;;;;;;;5121870;27;20050;-65
2023/10/20 04:28:47;;;;;;;19.75;7.90;;;;;;;;;;5144546;27;20162;-61
2023/10/20 04:42:45;;;;;;;23.80;9.70;;;;;;;;;;5121578;27;20562;-60
2023/10/20 04:48:15;;;;;;;27.40;10.32;;;;;;;;;;5126743;27;20123;-64
2023/10/20 04:51:18;;;;;;;19.08;8.55;;;;;;;;;;5119123;27;20200;-61
2023/10/20 04:53:54;;;;;;;21.77;9.57;;;;;;;;;;5114311;27;20051;-61
2023/10/20 04:56:36;;;;;;;22.15;8.75;;;;;;;;;;5135373;27;20372;-62
2023/10/20 04:59:09;;;;;;;24.58;9.60;;;;;;;;;;5135278;27;20062;-60
2023/10/20 05:01:47;;;;;;;19.48;8.65;;;;;;;;;;5106977;27;20055;-60
2023/10/20 05:04:21;;;;;;;27.50;9.77;;;;;;;;;;5095295;27;20055;-61
2023/10/20 05:06:58;;;;;;;20.75;9.00;;;;;;;;;;5119805;27;20477;-59
2023/10/20 05:09:25;;;;;;;21.30;9.13;;;;;;;;;;5103587;27;20067;-61
2023/10/20 05:11:52;;;;;;;16.33;7.75;;;;;;;;;;5115259;27;20062;-61
2023/10/20 05:14:19;;;;;;;19.83;8.55;;;;;;;;;;5085736;27;20120;-60
2023/10/20 05:16:46;;;;;;;22.33;8.98;;;;;;;;;;5125136;27;20059;-61
2023/10/20 05:19:12;;;;;;;19.70;8.45;;;;;;;;;;5107812;27;20133;-59
2023/10/20 05:21:40;;;;;;;18.40;7.78;;;;;;;;;;5107468;27;20054;-62
2023/10/20 05:24:09;;;;;;;22.20;8.65;;;;;;;;;;5107751;27;20118;-60
2023/10/20 05:26:36;;;;;;;19.42;6.78;;;;;;;;;;5109971;27;20051;-59
2023/10/20 05:29:07;;;;;;;17.40;7.20;;;;;;;;;;5114363;27;20055;-61
2023/10/20 05:31:38;;;;;;;16.73;7.53;;;;;;;;;;5116263;27;20073;-62
2023/10/20 05:34:05;;;;;;;14.93;6.55;;;;;;;;;;5080026;27;20055;-62
2023/10/20 05:36:31;;;;;;;16.20;6.40;;;;;;;;;;5091654;27;20100;-63
2023/10/20 05:38:58;;;;;;;15.25;6.97;;;;;;;;;;5115421;27;20050;-61
2023/10/20 05:41:36;;;;;;;15.07;6.43;;;;;;;;;;5116226;27;20051;-62
2023/10/20 05:44:04;;;;;;;14.88;5.53;;;;;;;;;;5084248;27;20849;-59
2023/10/20 05:46:31;;;;;;;14.98;6.03;;;;;;;;;;5076192;27;20093;-56
2023/10/20 05:48:58;;;;;;;12.38;5.43;;;;;;;;;;5118643;27;20096;-61
2023/10/20 05:51:26;;;;;;;12.63;5.18;;;;;;;;;;5107062;27;20051;-66
2023/10/20 05:53:53;;;;;;;;;;;;;;;;;;5133458;27;20088;-64
2023/10/20 05:56:20;;;;;;;15.13;5.53;;;;;;;;;;5110907;27;20015;-64
2023/10/20 05:58:52;;;;;;;14.20;5.00;;;;;;;;;;5124846;27;20623;-65
2023/10/20 06:01:19;;;;;;;14.35;5.15;;;;;;;;;;5113267;27;20713;-62
2023/10/20 06:03:46;;;;;;;12.82;5.80;;;;;;;;;;5113007;27;20232;-62
2023/10/20 06:06:13;;;;;;;12.80;5.13;;;;;;;;;;5054560;27;20062;-61
2023/10/20 06:08:44;;;;;;;10.40;4.85;;;;;;;;;;5095763;27;20043;-62
2023/10/20 06:11:14;;;;;;;12.98;5.53;;;;;;;;;;5099449;28;20062;-60
2023/10/20 06:13:49;;;;;;;12.10;4.85;;;;;;;;;;5116863;27;20055;-63
2023/10/20 06:16:20;;;;;;;11.85;5.00;;;;;;;;;;5046253;27;20047;-63
2023/10/20 06:18:49;;;;;;;11.52;5.00;;;;;;;;;;5122263;27;20065;-61
2023/10/20 06:21:17;;;;;;;11.02;5.10;;;;;;;;;;5119344;27;20150;-63
2023/10/20 06:23:46;;;;;;;10.10;4.07;;;;;;;;;;5117764;27;20078;-62
2023/10/20 06:26:15;;;;;;;;;;;;;;;;;;5066922;27;20047;-62
2023/10/20 06:28:43;;;;;;;8.55;3.45;;;;;;;;;;5115872;27;19923;-62
2023/10/20 06:31:27;;;;;;;10.52;4.63;;;;;;;;;;5118588;27;20057;-62
2023/10/20 06:33:57;;;;;;;11.50;4.45;;;;;;;;;;5118028;27;20043;-64
2023/10/20 06:36:26;;;;;;;9.85;4.45;;;;;;;;;;5037651;27;20112;-62
2023/10/20 06:38:54;;;;;;;10.43;4.75;;;;;;;;;;5115191;27;20048;-60
2023/10/20 06:41:21;;;;;;;11.77;4.75;;;;;;;;;;5114833;27;20058;-60
2023/10/20 06:43:48;;;;;;;10.32;4.70;;;;;;;;;;5109304;27;20047;-65
2023/10/20 06:46:21;;;;;;;13.43;4.50;;;;;;;;;;5081753;27;20071;-62
2023/10/20 06:48:48;;;;;;;11.55;4.85;;;;;;;;;;5132028;27;20058;-60
2023/10/20 06:51:15;;;;;;;15.75;6.18;;;;;;;;;;5137765;27;20154;-59
2023/10/20 06:53:42;;;;;;;11.82;5.22;;;;;;;;;;5114734;27;20062;-60
2023/10/20 06:56:14;;;;;;;11.93;5.40;;;;;;;;;;5040914;27;20045;-61
2023/10/20 06:58:42;;;;;;;14.55;5.15;;;;;;;;;;5112781;27;20065;-61
2023/10/20 07:01:08;;;;;;;10.40;4.55;;;;;;;;;;5100689;28;20059;-60
2023/10/20 07:03:38;;;;;;;12.02;5.35;;;;;;;;;;5137011;27;20065;-60
2023/10/20 07:06:09;;;;;;;13.40;5.55;;;;;;;;;;5070505;28;20134;-63
2023/10/20 07:08:36;;;;;;;13.57;5.50;;;;;;;;;;5093609;27;20394;-60
2023/10/20 07:11:03;;;;;;;13.43;6.00;;;;;;;;;;5100309;28;20502;-61
2023/10/20 07:13:32;;;;;;;12.40;5.38;;;;;;;;;;5111936;28;20069;-61
2023/10/20 07:16:00;;;;;;;12.85;5.53;;;;;;;;;;5083301;28;20122;-61
2023/10/20 07:18:27;;;;;;;17.58;5.78;;;;;;;;;;5096877;27;20181;-59
2023/10/20 07:20:55;;;;;;;14.10;5.57;;;;;;;;;;5099054;28;20051;-61
2023/10/20 07:23:22;;;;;;;16.17;5.60;;;;;;;;;;5101945;28;20056;-64
2023/10/20 07:25:49;;;;;;;12.30;5.28;;;;;;;;;;5086221;27;20047;-64
2023/10/20 07:28:16;;;;;;;12.55;5.25;;;;;;;;;;5126205;27;20055;-57
2023/10/20 07:30:45;;;;;;;12.13;4.80;;;;;;;;;;5121369;27;20090;-60
2023/10/20 07:33:12;;;;;;;9.88;4.47;;;;;;;;;;5115111;27;20074;-63
2023/10/20 07:35:39;;;;;;;13.73;4.68;;;;;;;;;;5111873;27;20202;-62
2023/10/20 07:38:12;;;;;;;11.57;4.75;;;;;;;;;;5122608;27;20116;-60
2023/10/20 07:40:42;;;;;;;10.82;4.20;;;;;;;;;;5122135;27;20051;-61
2023/10/20 07:43:11;;;;;;;11.82;4.70;;;;;;;;;;5123621;27;20057;-62
2023/10/20 07:45:40;;;;;;;9.93;4.38;;;;;;;;;;5095510;27;20042;-61
2023/10/20 07:48:16;;;;;;;8.35;2.88;;;;;;;;;;5123559;27;20286;-61
2023/10/20 07:50:44;;;;;;;10.38;3.75;;;;;;;;;;5120822;27;20051;-63
2023/10/20 07:53:12;;;;;;;11.27;4.25;;;;;;;;;;5123765;27;20058;-59
2023/10/20 07:55:39;;;;;;;9.18;3.83;;;;;;;;;;5099560;27;20047;-59
2023/10/20 07:58:09;;;;;;;8.85;3.53;;;;;;;;;;5114882;27;20062;-62
2023/10/20 08:00:36;;;;;;;11.30;3.85;;;;;;;;;;5121039;27;20066;-56
2023/10/20 08:03:04;;;;;;;8.80;3.63;;;;;;;;;;5123310;27;20154;-63
2023/10/20 08:05:30;;;;;;;9.27;3.58;;;;;;;;;;5116818;27;20046;-62
2023/10/20 08:07:58;;;;;;;8.90;3.65;;;;;;;;;;5123159;27;20051;-60
2023/10/20 08:10:26;;;;;;;7.23;3.53;;;;;;;;;;5116870;27;20078;-62
2023/10/20 08:12:53;;;;;;;7.30;2.80;;;;;;;;;;5111368;27;20298;-58
2023/10/20 08:15:20;;;;;;;9.40;2.90;;;;;;;;;;5064478;27;20061;-61
2023/10/20 08:17:52;;;;;;;7.63;2.88;;;;;;;;;;5079887;28;20056;-62
2023/10/20 08:20:19;;;;;;;8.77;2.92;;;;;;;;;;5085529;27;20131;-61
2023/10/20 08:22:47;;;;;;;6.50;3.08;;;;;;;;;;5101764;27;20048;-60
2023/10/20 08:25:17;;;;;;;6.15;2.58;;;;;;;;;;5062044;27;20135;-61
2023/10/20 08:27:57;;;;;;;8.63;2.85;;;;;;;;;;5072263;28;20051;-60
2023/10/20 08:30:25;;;;;;;5.30;2.05;;;;;;;;;;5079448;28;20048;-59
2023/10/20 08:32:53;;;;;;;5.97;2.30;;;;;;;;;;5081158;28;20116;-60
2023/10/20 08:35:23;;;;;;;6.15;2.13;;;;;;;;;;5026931;27;20146;-59
2023/10/20 08:37:53;;;;;;;5.22;2.10;;;;;;;;;;5098453;27;20048;-60
2023/10/20 08:40:40;;;;;;;6.80;2.13;;;;;;;;;;5085632;27;20070;-62
2023/10/20 08:43:09;;;;;;;5.85;2.20;;;;;;;;;;5097714;28;20154;-60
2023/10/20 08:45:36;;;;;;;3.85;1.70;;;;;;;;;;5098267;27;20066;-61
2023/10/20 08:48:13;;;;;;;4.25;1.52;;;;;;;;;;5101627;27;20067;-62
2023/10/20 08:50:40;;;;;;;6.00;1.92;;;;;;;;;;5090543;27;20056;-59
2023/10/20 08:53:10;;;;;;;3.10;1.20;;;;;;;;;;5084271;28;20151;-60
2023/10/20 08:55:36;;;;;;;4.68;1.80;;;;;;;;;;5086844;27;20054;-62
2023/10/20 08:58:04;;;;;;;5.05;1.52;;;;;;;;;;5082239;28;20047;-62
2023/10/20 09:00:32;;;;;;;2.20;1.20;;;;;;;;;;5084247;27;20044;-61
2023/10/20 09:02:59;;;;;;;5.30;1.67;;;;;;;;;;5098449;28;20190;-63
2023/10/20 09:05:35;;;;;;;4.10;1.48;;;;;;;;;;5079461;27;20078;-60
2023/10/20 09:08:02;;;;;;;4.00;1.63;;;;;;;;;;5113723;27;20469;-60
2023/10/20 09:10:29;;;;;;;2.90;1.20;;;;;;;;;;5097367;28;20522;-61
2023/10/20 09:12:56;;;;;;;2.13;0.98;;;;;;;;;;5099583;28;20063;-67
2023/10/20 09:15:24;;;;;;;1.77;0.90;;;;;;;;;;5069169;28;20060;-60
2023/10/20 09:17:56;;;;;;;2.13;1.03;;;;;;;;;;5079520;28;20163;-60
2023/10/20 09:20:29;;;;;;;1.73;1.00;;;;;;;;;;5074478;28;20062;-64
2023/10/20 09:22:56;;;;;;;2.17;0.90;;;;;;;;;;5084229;27;20056;-63
2023/10/20 09:25:22;;;;;;;2.20;1.10;;;;;;;;;;5061821;27;20090;-61
2023/10/20 09:27:50;;;;;;;2.60;1.10;;;;;;;;;;5101163;28;20128;-61
2023/10/20 09:30:19;;;;;;;1.83;0.90;;;;;;;;;;5095102;28;20055;-61
2023/10/20 09:32:47;;;;;;;1.60;0.93;;;;;;;;;;5099828;28;20048;-61
2023/10/20 09:35:15;;;;;;;1.52;1.00;;;;;;;;;;5094417;28;20055;-59
2023/10/20 09:37:43;;;;;;;1.65;0.80;;;;;;;;;;5103090;28;20063;-62
2023/10/20 09:40:11;;;;;;;1.40;0.90;;;;;;;;;;5095817;28;20146;-64
2023/10/20 09:42:49;;;;;;;1.80;0.80;;;;;;;;;;5095418;28;20047;-62
2023/10/20 09:45:19;;;;;;;2.70;0.73;;;;;;;;;;5021219;28;20123;-61
2023/10/20 09:47:51;;;;;;;1.30;0.70;;;;;;;;;;5078069;28;20221;-62
2023/10/20 09:50:22;;;;;;;3.80;1.02;;;;;;;;;;5083503;28;20115;-60
2023/10/20 09:52:50;;;;;;;3.53;0.77;;;;;;;;;;5102005;28;20140;-61
2023/10/20 09:55:19;;;;;;;0.77;0.60;;;;;;;;;;5089134;28;20051;-61
2023/10/20 10:00:37;;;;;;;1.02;0.70;;;;;;;;;;5080140;28;20141;-61
2023/10/20 10:06:29;;;;;;;1.73;0.70;;;;;;;;;;5001363;27;20060;-61
2023/10/20 10:08:57;;;;;;;1.25;0.60;;;;;;;;;;5076210;27;20135;-62
2023/10/20 10:11:49;;;;;;;1.25;0.52;;;;;;;;;;5116346;27;20078;-62
2023/10/20 10:18:00;;;;;;;1.98;0.80;;;;;;;;;;5121203;27;20058;-61
2023/10/20 10:20:30;;;;;;;0.63;0.40;;;;;;;;;;5105219;27;20436;-59
2023/10/20 10:23:00;;;;;;;1.15;0.60;;;;;;;;;;5120784;27;20086;-62
2023/10/20 10:25:36;;;;;;;1.15;0.60;;;;;;;;;;5077876;27;20074;-61
2023/10/20 10:28:15;;;;;;;0.63;0.50;;;;;;;;;;5058658;28;20060;-60
2023/10/20 10:30:42;;;;;;;;;;;;;;;;;;5046395;28;21427;-60
2023/10/20 10:33:11;;;;;;;0.45;0.40;;;;;;;;;;5075317;28;19920;-62
2023/10/20 10:35:38;;;;;;;;;;;;;;;;;;5074467;27;20059;-61
2023/10/20 10:38:06;;;;;;;0.65;0.50;;;;;;;;;;5093069;27;19959;-61
2023/10/20 10:40:34;;;;;;;0.68;0.40;;;;;;;;;;5124281;27;20319;-63
2023/10/20 10:43:30;;;;;;;0.50;0.40;;;;;;;;;;5111805;27;20047;-62
2023/10/20 10:45:57;;;;;;;1.05;0.50;;;;;;;;;;5074969;27;20055;-62
2023/10/20 10:48:25;;;;;;;0.40;0.30;;;;;;;;;;5092536;27;20055;-57
2023/10/20 10:50:56;;;;;;;0.57;0.50;;;;;;;;;;5107005;27;20074;-60
2023/10/20 10:53:27;;;;;;;0.45;0.40;;;;;;;;;;5133374;27;20054;-60
2023/10/20 10:55:57;;;;;;;0.60;0.52;;;;;;;;;;5117678;27;20055;-62
2023/10/20 10:58:25;;;;;;;2.00;0.80;;;;;;;;;;5114878;27;20046;-60
2023/10/20 11:00:52;;;;;;;0.45;0.45;;;;;;;;;;5134282;27;20236;-60
2023/10/20 11:03:19;;;;;;;1.30;0.60;;;;;;;;;;5120373;27;20059;-60
2023/10/20 11:05:55;;;;;;;1.77;0.60;;;;;;;;;;5048488;27;20173;-60
2023/10/20 11:08:22;;;;;;;0.70;0.50;;;;;;;;;;5135106;27;20070;-60
2023/10/20 11:10:49;;;;;;;0.80;0.50;;;;;;;;;;5124056;27;20050;-63
2023/10/20 11:13:17;;;;;;;4.60;1.67;;;;;;;;;;5127660;27;20059;-61
2023/10/20 11:15:46;;;;;;;5.05;2.22;;;;;;;;;;5119971;27;20115;-61
2023/10/20 11:18:18;;;;;;;2.45;1.25;;;;;;;;;;5116806;28;20054;-62
2023/10/20 11:20:49;;;;;;;1.70;0.60;;;;;;;;;;5120052;28;20157;-60
2023/10/20 11:23:19;;;;;;;1.08;0.70;;;;;;;;;;5101931;28;20153;-61
2023/10/20 11:29:18;;;;;;;0.77;0.60;;;;;;;;;;5026606;28;20349;-60
2023/10/20 11:32:30;;;;;;;3.05;0.70;;;;;;;;;;5085068;27;20081;-60
2023/10/20 11:35:36;;;;;;;0.75;0.55;;;;;;;;;;5098246;28;20053;-61
2023/10/20 11:38:26;;;;;;;0.63;0.55;;;;;;;;;;5081283;28;20063;-60
2023/10/20 11:41:16;;;;;;;0.50;0.50;;;;;;;;;;5118614;27;20092;-58
2023/10/20 11:44:27;;;;;;;2.08;0.77;;;;;;;;;;5108612;27;20050;-60
2023/10/20 11:46:57;;;;;;;1.15;0.50;;;;;;;;;;5051580;27;20049;-59
2023/10/20 11:50:16;;;;;;;1.02;0.50;;;;;;;;;;5091341;28;20055;-59
2023/10/20 11:53:36;;;;;;;0.55;0.55;;;;;;;;;;5081642;28;20131;-60
2023/10/20 11:56:10;;;;;;;0.60;0.53;;;;;;;;;;5030944;28;20140;-61
2023/10/20 11:58:39;;;;;;;0.88;0.63;;;;;;;;;;5084331;28;20077;-61
2023/10/20 12:01:08;;;;;;;2.25;0.60;;;;;;;;;;5109664;27;20057;-61
2023/10/20 12:04:06;;;;;;;1.58;0.63;;;;;;;;;;5120224;27;20055;-62
2023/10/20 12:06:37;;;;;;;0.93;0.60;;;;;;;;;;5098645;27;20061;-60
2023/10/20 12:09:08;;;;;;;1.27;0.55;;;;;;;;;;5139053;27;20119;-60
2023/10/20 12:11:36;;;;;;;1.42;0.50;;;;;;;;;;5124290;27;20124;-60
2023/10/20 12:14:16;;;;;;;1.73;0.60;;;;;;;;;;5125260;27;20554;-62
2023/10/20 12:16:53;;;;;;;0.60;0.50;;;;;;;;;;5121128;27;20053;-60
2023/10/20 12:19:20;;;;;;;0.97;0.50;;;;;;;;;;5125571;27;20061;-61
2023/10/20 12:21:47;;;;;;;1.30;0.43;;;;;;;;;;5142298;27;20058;-60
2023/10/20 12:24:17;;;;;;;6.20;2.30;;;;;;;;;;5141304;27;20054;-60
2023/10/20 12:26:43;;;;;;;3.53;1.63;;;;;;;;;;5126582;27;20058;-59
2023/10/20 12:29:10;;;;;;;1.65;0.90;;;;;;;;;;5123215;27;20070;-61
2023/10/20 12:31:37;;;;;;;0.77;0.43;;;;;;;;;;5130640;27;20063;-59
2023/10/20 12:34:05;;;;;;;1.73;0.70;;;;;;;;;;5120891;27;20416;-61
2023/10/20 12:36:33;;;;;;;0.80;0.57;;;;;;;;;;5099675;27;20278;-59
2023/10/20 12:39:00;;;;;;;0.43;0.43;;;;;;;;;;5115395;27;20047;-61
2023/10/20 12:45:00;;;;;;;1.05;0.50;;;;;;;;;;5077059;27;20058;-64
2023/10/20 12:48:11;;;;;;;0.77;0.60;;;;;;;;;;5064064;27;20055;-61
2023/10/20 12:50:41;;;;;;;1.23;0.70;;;;;;;;;;5098604;27;20163;-62
2023/10/20 12:53:08;;;;;;;1.75;0.60;;;;;;;;;;5111340;27;20082;-61
2023/10/20 12:55:35;;;;;;;0.98;0.60;;;;;;;;;;5141658;27;20062;-61
2023/10/20 12:58:06;;;;;;;0.50;0.50;;;;;;;;;;5090567;27;20055;-60
2023/10/20 13:00:35;;;;;;;1.23;0.60;;;;;;;;;;5115459;27;20211;-60
2023/10/20 13:03:02;;;;;;;0.60;0.57;;;;;;;;;;5139651;27;20098;-58
2023/10/20 13:05:29;;;;;;;1.08;0.70;;;;;;;;;;5122935;27;20065;-61
2023/10/20 13:07:56;;;;;;;1.70;0.68;;;;;;;;;;5137494;27;20090;-61
2023/10/20 13:10:24;;;;;;;1.25;0.55;;;;;;;;;;5119714;27;20117;-58
2023/10/20 13:12:54;;;;;;;1.02;0.60;;;;;;;;;;5120914;27;20047;-59
2023/10/20 13:18:28;;;;;;;0.75;0.50;;;;;;;;;;5087134;27;20079;-60
2023/10/20 13:20:54;;;;;;;0.75;0.40;;;;;;;;;;5101609;27;20170;-61
2023/10/20 13:23:22;;;;;;;0.43;0.43;;;;;;;;;;5120784;27;20129;-63
2023/10/20 13:25:51;;;;;;;0.85;0.50;;;;;;;;;;5129840;27;20058;-60
2023/10/20 13:28:17;;;;;;;1.08;0.50;;;;;;;;;;5113460;27;20043;-60
2023/10/20 13:30:45;;;;;;;1.67;0.50;;;;;;;;;;5122383;27;20119;-60
2023/10/20 13:33:12;;;;;;;0.68;0.57;;;;;;;;;;5123175;27;20055;-60
2023/10/20 13:35:40;;;;;;;0.30;0.30;;;;;;;;;;5120676;27;20054;-60
2023/10/20 13:38:21;;;;;;;0.57;0.30;;;;;;;;;;5102644;27;20121;-59
2023/10/20 13:40:51;;;;;;;1.42;0.60;;;;;;;;;;5124685;27;20058;-61
2023/10/20 13:43:23;;;;;;;0.70;0.50;;;;;;;;;;5112149;27;20051;-61
2023/10/20 13:45:53;;;;;;;0.88;0.60;;;;;;;;;;5088653;27;20073;-59
2023/10/20 13:48:20;;;;;;;0.40;0.40;;;;;;;;;;5047403;27;20078;-61
2023/10/20 13:50:47;;;;;;;0.85;0.47;;;;;;;;;;5102856;27;20169;-60
2023/10/20 13:53:15;;;;;;;0.40;0.40;;;;;;;;;;5128211;27;20066;-59
2023/10/20 13:55:45;;;;;;;1.88;0.40;;;;;;;;;;5119467;27;20101;-60
2023/10/20 13:58:19;;;;;;;0.82;0.52;;;;;;;;;;5051080;27;20311;-60
2023/10/20 14:00:45;;;;;;;0.40;0.40;;;;;;;;;;5124966;27;20158;-60
2023/10/20 14:03:14;;;;;;;0.40;0.40;;;;;;;;;;5128236;27;20082;-60
2023/10/20 14:05:44;;;;;;;0.60;0.40;;;;;;;;;;5123957;27;20042;-58
2023/10/20 14:08:16;;;;;;;1.00;0.60;;;;;;;;;;5085582;27;20127;-59
2023/10/20 14:10:43;;;;;;;2.55;0.80;;;;;;;;;;5102534;27;20119;-61
2023/10/20 14:13:13;;;;;;;0.60;0.40;;;;;;;;;;5102737;27;20051;-61
2023/10/20 14:15:41;;;;;;;1.27;0.57;;;;;;;;;;5122686;27;20092;-59
2023/10/20 14:18:11;;;;;;;1.15;0.60;;;;;;;;;;5086606;27;20084;-62
2023/10/20 14:20:39;;;;;;;1.60;0.60;;;;;;;;;;5115883;27;20054;-60
2023/10/20 14:23:06;;;;;;;1.63;0.80;;;;;;;;;;5126999;27;20195;-58
2023/10/20 14:25:32;;;;;;;1.45;0.70;;;;;;;;;;5119900;27;20070;-60
2023/10/20 14:27:59;;;;;;;2.63;1.35;;;;;;;;;;5116524;27;20108;-58
2023/10/20 14:30:26;;;;;;;20.48;10.25;;;;;;;;;;5114509;27;20085;-58
2023/10/20 14:32:52;;;;;;;5.43;2.60;;;;;;;;;;5135288;27;20059;-59
2023/10/20 14:35:19;;;;;;;1.85;1.10;;;;;;;;;;5119336;27;20082;-58
2023/10/20 14:37:47;;;;;;;1.88;0.98;;;;;;;;;;5115060;27;20039;-59
2023/10/20 14:40:14;;;;;;;0.70;0.50;;;;;;;;;;5112563;27;20051;-59
2023/10/20 14:42:41;;;;;;;0.93;0.65;;;;;;;;;;5117213;27;20047;-59
2023/10/20 14:45:13;;;;;;;1.92;0.70;;;;;;;;;;5102921;27;20044;-57
2023/10/20 14:47:39;;;;;;;1.52;0.63;;;;;;;;;;5092193;27;20054;-58
2023/10/20 14:50:20;;;;;;;1.90;0.80;;;;;;;;;;5138049;27;20055;-59
2023/10/20 14:52:51;;;;;;;3.63;0.80;;;;;;;;;;5137467;27;20047;-58
2023/10/20 14:55:18;;;;;;;2.05;0.90;;;;;;;;;;5120421;27;20066;-61
2023/10/20 14:57:48;;;;;;;1.83;1.10;;;;;;;;;;5099393;27;20061;-60
2023/10/20 15:00:19;;;;;;;2.10;0.65;;;;;;;;;;5123715;27;20055;-59
2023/10/20 15:02:45;;;;;;;1.83;0.70;;;;;;;;;;5112248;27;20054;-59
2023/10/20 15:05:13;;;;;;;0.52;0.52;;;;;;;;;;5117445;27;20051;-58
2023/10/20 15:07:45;;;;;;;0.65;0.55;;;;;;;;;;5131845;27;20051;-58
2023/10/20 15:10:15;;;;;;;1.83;0.60;;;;;;;;;;5118358;27;20057;-56
2023/10/20 15:12:49;;;;;;;1.33;0.70;;;;;;;;;;5114623;27;20067;-57
2023/10/20 15:15:22;;;;;;;0.82;0.60;;;;;;;;;;5117454;27;20051;-60
2023/10/20 15:17:51;;;;;;;1.25;0.80;;;;;;;;;;5106841;27;20086;-60
2023/10/20 15:20:20;;;;;;;2.20;0.90;;;;;;;;;;5125868;27;20082;-57
2023/10/20 15:22:56;;;;;;;2.92;0.90;;;;;;;;;;5127395;27;20043;-54
2023/10/20 15:25:25;;;;;;;1.63;0.90;;;;;;;;;;5136261;27;20134;-59
2023/10/20 15:27:51;;;;;;;1.83;1.00;;;;;;;;;;5112523;27;20050;-57